Impacts TAF Board INFO
FOR SITUATIONAL AWARENESS. NOT TO BE USED FOR FLIGHT PLANNING PURPOSES.
IDs:

KRNH - New Richmond Muni, WI, US

Issued at 1731 UTC 20 Jul 2018
Updated at 2023 UTC 20 Jul 2018
Potential Impact None Slight Moderate High
Time<<21/09Z 21/10Z 21/11Z 21/12Z 21/13Z 21/14Z 21/15Z 21/16Z 21/17Z 21/18Z 21/19Z 21/20Z 21/21Z>>
Type PRVL
  [TEMP]  
PRVL
  [TEMP]  
PRVL
  [TEMP]  
PRVL
  [TEMP]  
PRVL PRVL PRVL PRVL PRVL
VIS >6 >6 >6 >6 >6 >6 >6 >6 >6
CIG 60
  [25]  
60
  [25]  
60
  [25]  
60
  [25]  
60 60 60 60 60
Cover BKN
  [BKN]  
BKN
  [BKN]  
BKN
  [BKN]  
BKN
  [BKN]  
BKN BKN BKN BKN BKN
FltCat VFR
  [MVFR]  
VFR
  [MVFR]  
VFR
  [MVFR]  
VFR
  [MVFR]  
VFR VFR VFR VFR VFR
WX --
  [--]  
--
  [--]  
--
  [--]  
--
  [--]  
-- -- -- -- --
WDir 350
[350]
350
[350]
350
[350]
350
[350]
350 350 350 350 350
WSpd 6
  [6]  
6
  [6]  
6
  [6]  
6
  [6]  
6 6 6 6 6
WGst --
  [--]  
--
  [--]  
--
  [--]  
--
  [--]  
-- -- -- -- --

Raw TAF
KRNH 201731Z 2018/2118 34008KT P6SM VCSH SCT030 OVC050
  FM210000 35006KT P6SM BKN060
  TEMPO 2109/2113 BKN025


METAR Board
Radar Display
Forecast Discussion

FOR SITUATIONAL AWARENESS. NOT TO BE USED FOR FLIGHT PLANNING PURPOSES.